sensor_id;sensor_type;location;lat;lon;timestamp;noise_LAeq;noise_LA_min;noise_LA_max;noise_LA01;noise_LA95
66274;Laerm;58450;52.150;4.466;2023-07-29T00:01:25;39.80;33.33;51.41;;
66274;Laerm;58450;52.150;4.466;2023-07-29T00:03:53;40.51;33.52;56.42;;
66274;Laerm;58450;52.150;4.466;2023-07-29T00:06:20;43.24;33.43;69.58;;
66274;Laerm;58450;52.150;4.466;2023-07-29T00:08:49;39.07;33.41;48.54;;
66274;Laerm;58450;52.150;4.466;2023-07-29T00:11:17;38.79;32.21;48.17;;
66274;Laerm;58450;52.150;4.466;2023-07-29T00:13:45;39.54;33.32;47.85;;
66274;Laerm;58450;52.150;4.466;2023-07-29T00:16:13;39.02;33.11;48.39;;
66274;Laerm;58450;52.150;4.466;2023-07-29T00:18:41;39.57;32.50;50.68;;
66274;Laerm;58450;52.150;4.466;2023-07-29T00:21:09;46.10;34.44;61.70;;
66274;Laerm;58450;52.150;4.466;2023-07-29T00:23:37;39.76;33.69;49.10;;
66274;Laerm;58450;52.150;4.466;2023-07-29T00:26:06;45.30;34.01;61.07;;
66274;Laerm;58450;52.150;4.466;2023-07-29T00:28:33;40.04;34.28;51.47;;
66274;Laerm;58450;52.150;4.466;2023-07-29T00:31:01;42.57;33.86;56.75;;
66274;Laerm;58450;52.150;4.466;2023-07-29T00:33:29;38.74;32.72;48.58;;
66274;Laerm;58450;52.150;4.466;2023-07-29T00:35:57;43.92;32.77;65.93;;
66274;Laerm;58450;52.150;4.466;2023-07-29T00:38:28;39.94;33.29;63.99;;
66274;Laerm;58450;52.150;4.466;2023-07-29T00:40:57;38.80;32.78;47.78;;
66274;Laerm;58450;52.150;4.466;2023-07-29T00:43:26;38.58;32.91;48.58;;
66274;Laerm;58450;52.150;4.466;2023-07-29T00:45:54;39.84;32.61;65.03;;
66274;Laerm;58450;52.150;4.466;2023-07-29T00:48:25;42.25;32.60;63.20;;
66274;Laerm;58450;52.150;4.466;2023-07-29T00:50:53;38.96;32.34;50.12;;
66274;Laerm;58450;52.150;4.466;2023-07-29T00:53:21;38.59;32.97;48.26;;
66274;Laerm;58450;52.150;4.466;2023-07-29T00:55:49;39.61;32.62;55.04;;
66274;Laerm;58450;52.150;4.466;2023-07-29T00:58:17;39.99;33.17;55.82;;
66274;Laerm;58450;52.150;4.466;2023-07-29T01:00:47;38.33;31.89;47.93;;
66274;Laerm;58450;52.150;4.466;2023-07-29T01:03:15;38.83;32.77;48.13;;
66274;Laerm;58450;52.150;4.466;2023-07-29T01:05:54;38.39;32.73;48.93;;
66274;Laerm;58450;52.150;4.466;2023-07-29T01:08:36;38.31;32.88;53.37;;
66274;Laerm;58450;52.150;4.466;2023-07-29T01:11:23;38.53;33.25;47.96;;
66274;Laerm;58450;52.150;4.466;2023-07-29T01:14:04;38.39;32.67;50.59;;
66274;Laerm;58450;52.150;4.466;2023-07-29T01:16:41;38.82;32.53;48.48;;
66274;Laerm;58450;52.150;4.466;2023-07-29T01:19:29;38.76;32.98;52.23;;
66274;Laerm;58450;52.150;4.466;2023-07-29T01:22:04;37.78;32.10;48.80;;
66274;Laerm;58450;52.150;4.466;2023-07-29T01:24:35;38.76;32.21;47.88;;
66274;Laerm;58450;52.150;4.466;2023-07-29T01:27:03;39.06;32.75;58.78;;
66274;Laerm;58450;52.150;4.466;2023-07-29T01:29:31;40.04;32.17;59.40;;
66274;Laerm;58450;52.150;4.466;2023-07-29T01:32:07;40.94;33.22;54.68;;
66274;Laerm;58450;52.150;4.466;2023-07-29T01:34:47;38.17;32.22;47.54;;
66274;Laerm;58450;52.150;4.466;2023-07-29T01:37:23;40.14;32.58;61.89;;
66274;Laerm;58450;52.150;4.466;2023-07-29T01:39:57;38.02;32.41;47.90;;
66274;Laerm;58450;52.150;4.466;2023-07-29T01:42:27;38.11;32.86;47.73;;
66274;Laerm;58450;52.150;4.466;2023-07-29T01:44:54;38.50;32.26;47.80;;
66274;Laerm;58450;52.150;4.466;2023-07-29T01:47:22;38.20;32.40;47.66;;
66274;Laerm;58450;52.150;4.466;2023-07-29T01:49:49;42.26;32.77;65.65;;
66274;Laerm;58450;52.150;4.466;2023-07-29T01:52:17;44.23;33.25;63.00;;
66274;Laerm;58450;52.150;4.466;2023-07-29T01:54:44;39.75;32.55;55.86;;
66274;Laerm;58450;52.150;4.466;2023-07-29T01:57:13;38.75;32.88;47.79;;
66274;Laerm;58450;52.150;4.466;2023-07-29T01:59:41;38.18;32.57;47.33;;
66274;Laerm;58450;52.150;4.466;2023-07-29T02:02:09;38.47;32.80;48.68;;
66274;Laerm;58450;52.150;4.466;2023-07-29T02:04:37;38.23;32.55;48.43;;
66274;Laerm;58450;52.150;4.466;2023-07-29T02:07:05;40.18;33.17;56.98;;
66274;Laerm;58450;52.150;4.466;2023-07-29T02:09:32;39.94;33.51;56.59;;
66274;Laerm;58450;52.150;4.466;2023-07-29T02:12:00;39.40;33.37;49.35;;
66274;Laerm;58450;52.150;4.466;2023-07-29T02:14:29;41.56;33.73;61.70;;
66274;Laerm;58450;52.150;4.466;2023-07-29T02:16:57;41.04;33.51;55.78;;
66274;Laerm;58450;52.150;4.466;2023-07-29T02:19:24;39.21;33.44;53.56;;
66274;Laerm;58450;52.150;4.466;2023-07-29T02:21:52;38.90;33.62;47.26;;
66274;Laerm;58450;52.150;4.466;2023-07-29T02:24:20;39.40;33.28;52.08;;
66274;Laerm;58450;52.150;4.466;2023-07-29T02:26:48;42.43;33.59;59.86;;
66274;Laerm;58450;52.150;4.466;2023-07-29T02:29:15;46.39;33.55;65.42;;
66274;Laerm;58450;52.150;4.466;2023-07-29T02:31:44;43.62;33.08;65.29;;
66274;Laerm;58450;52.150;4.466;2023-07-29T02:34:12;39.42;32.98;60.67;;
66274;Laerm;58450;52.150;4.466;2023-07-29T02:36:40;38.44;32.12;48.21;;
66274;Laerm;58450;52.150;4.466;2023-07-29T02:39:07;39.82;33.08;50.16;;
66274;Laerm;58450;52.150;4.466;2023-07-29T02:41:35;39.16;33.06;54.16;;
66274;Laerm;58450;52.150;4.466;2023-07-29T02:44:04;39.23;33.08;48.36;;
66274;Laerm;58450;52.150;4.466;2023-07-29T02:46:32;39.10;33.25;49.03;;
66274;Laerm;58450;52.150;4.466;2023-07-29T02:49:01;38.57;33.06;47.73;;
66274;Laerm;58450;52.150;4.466;2023-07-29T02:51:29;42.42;33.06;66.09;;
66274;Laerm;58450;52.150;4.466;2023-07-29T02:53:57;47.13;33.81;76.73;;
66274;Laerm;58450;52.150;4.466;2023-07-29T02:56:24;47.89;33.39;70.16;;
66274;Laerm;58450;52.150;4.466;2023-07-29T02:58:52;54.13;33.29;75.97;;
66274;Laerm;58450;52.150;4.466;2023-07-29T03:01:20;54.08;33.98;73.31;;
66274;Laerm;58450;52.150;4.466;2023-07-29T03:03:48;39.25;33.43;48.94;;
66274;Laerm;58450;52.150;4.466;2023-07-29T03:06:17;39.81;34.05;49.47;;
66274;Laerm;58450;52.150;4.466;2023-07-29T03:08:44;39.66;33.80;52.63;;
66274;Laerm;58450;52.150;4.466;2023-07-29T03:11:14;40.51;34.12;57.61;;
66274;Laerm;58450;52.150;4.466;2023-07-29T03:13:42;50.36;34.02;71.52;;
66274;Laerm;58450;52.150;4.466;2023-07-29T03:16:13;40.38;34.15;56.51;;
66274;Laerm;58450;52.150;4.466;2023-07-29T03:18:42;41.72;33.77;60.60;;
66274;Laerm;58450;52.150;4.466;2023-07-29T03:21:11;39.96;34.32;51.56;;
66274;Laerm;58450;52.150;4.466;2023-07-29T03:23:41;42.13;34.44;63.58;;
66274;Laerm;58450;52.150;4.466;2023-07-29T03:26:08;47.79;35.12;72.12;;
66274;Laerm;58450;52.150;4.466;2023-07-29T03:28:39;47.81;33.82;66.13;;
66274;Laerm;58450;52.150;4.466;2023-07-29T03:31:08;43.09;34.29;67.53;;
66274;Laerm;58450;52.150;4.466;2023-07-29T03:33:36;43.84;34.06;70.37;;
66274;Laerm;58450;52.150;4.466;2023-07-29T03:36:04;44.60;34.82;64.54;;
66274;Laerm;58450;52.150;4.466;2023-07-29T03:38:32;49.98;35.41;68.51;;
66274;Laerm;58450;52.150;4.466;2023-07-29T03:41:02;49.60;34.98;66.19;;
66274;Laerm;58450;52.150;4.466;2023-07-29T03:43:30;48.40;35.58;68.21;;
66274;Laerm;58450;52.150;4.466;2023-07-29T03:45:58;48.74;36.31;72.46;;
66274;Laerm;58450;52.150;4.466;2023-07-29T03:48:26;45.95;35.37;65.49;;
66274;Laerm;58450;52.150;4.466;2023-07-29T03:50:53;44.82;35.09;63.65;;
66274;Laerm;58450;52.150;4.466;2023-07-29T03:53:21;46.30;34.57;69.41;;
66274;Laerm;58450;52.150;4.466;2023-07-29T03:55:49;45.17;34.80;60.22;;
66274;Laerm;58450;52.150;4.466;2023-07-29T03:58:18;44.73;35.09;62.76;;
66274;Laerm;58450;52.150;4.466;2023-07-29T04:00:46;41.42;34.32;58.24;;
66274;Laerm;58450;52.150;4.466;2023-07-29T04:03:14;42.90;34.81;64.54;;
66274;Laerm;58450;52.150;4.466;2023-07-29T04:05:42;44.92;35.65;61.91;;
66274;Laerm;58450;52.150;4.466;2023-07-29T04:08:09;43.12;34.77;64.85;;
66274;Laerm;58450;52.150;4.466;2023-07-29T04:10:37;46.84;35.22;65.42;;
66274;Laerm;58450;52.150;4.466;2023-07-29T04:13:05;47.50;36.31;62.07;;
66274;Laerm;58450;52.150;4.466;2023-07-29T04:15:34;43.20;35.92;63.18;;
66274;Laerm;58450;52.150;4.466;2023-07-29T04:18:01;46.30;35.17;61.55;;
66274;Laerm;58450;52.150;4.466;2023-07-29T04:20:29;42.38;35.75;57.79;;
66274;Laerm;58450;52.150;4.466;2023-07-29T04:22:56;42.13;35.30;63.43;;
66274;Laerm;58450;52.150;4.466;2023-07-29T04:25:24;44.55;34.76;62.53;;
66274;Laerm;58450;52.150;4.466;2023-07-29T04:27:52;42.82;35.56;58.79;;
66274;Laerm;58450;52.150;4.466;2023-07-29T04:30:19;41.80;35.79;60.28;;
66274;Laerm;58450;52.150;4.466;2023-07-29T04:32:48;45.37;35.51;61.77;;
66274;Laerm;58450;52.150;4.466;2023-07-29T04:35:16;44.98;35.75;58.30;;
66274;Laerm;58450;52.150;4.466;2023-07-29T04:37:44;49.22;36.03;73.48;;
66274;Laerm;58450;52.150;4.466;2023-07-29T04:40:14;41.81;35.44;64.33;;
66274;Laerm;58450;52.150;4.466;2023-07-29T04:42:42;46.98;36.48;61.35;;
66274;Laerm;58450;52.150;4.466;2023-07-29T04:45:10;49.51;36.81;66.10;;
66274;Laerm;58450;52.150;4.466;2023-07-29T04:47:37;41.29;35.53;53.86;;
66274;Laerm;58450;52.150;4.466;2023-07-29T04:50:08;42.29;36.24;59.86;;
66274;Laerm;58450;52.150;4.466;2023-07-29T04:52:36;42.55;36.00;58.73;;
66274;Laerm;58450;52.150;4.466;2023-07-29T04:55:04;42.22;36.59;53.94;;
66274;Laerm;58450;52.150;4.466;2023-07-29T04:57:32;43.92;36.41;64.28;;
66274;Laerm;58450;52.150;4.466;2023-07-29T04:59:59;40.36;35.31;47.87;;
66274;Laerm;58450;52.150;4.466;2023-07-29T05:02:27;40.47;35.23;50.81;;
66274;Laerm;58450;52.150;4.466;2023-07-29T05:04:55;50.38;35.33;72.36;;
66274;Laerm;58450;52.150;4.466;2023-07-29T05:07:24;48.26;36.15;64.98;;
66274;Laerm;58450;52.150;4.466;2023-07-29T05:09:51;40.71;34.90;50.77;;
66274;Laerm;58450;52.150;4.466;2023-07-29T05:12:19;42.38;35.47;53.26;;
66274;Laerm;58450;52.150;4.466;2023-07-29T05:14:46;46.91;35.24;63.10;;
66274;Laerm;58450;52.150;4.466;2023-07-29T05:17:14;43.60;35.07;58.34;;
66274;Laerm;58450;52.150;4.466;2023-07-29T05:19:41;46.51;38.02;59.48;;
66274;Laerm;58450;52.150;4.466;2023-07-29T05:22:10;42.41;35.85;52.96;;
66274;Laerm;58450;52.150;4.466;2023-07-29T05:24:39;42.42;35.45;55.53;;
66274;Laerm;58450;52.150;4.466;2023-07-29T05:27:06;43.12;36.02;59.85;;
66274;Laerm;58450;52.150;4.466;2023-07-29T05:29:34;43.54;36.10;58.46;;
66274;Laerm;58450;52.150;4.466;2023-07-29T05:32:03;43.45;35.06;56.77;;
66274;Laerm;58450;52.150;4.466;2023-07-29T05:34:30;43.46;35.37;61.57;;
66274;Laerm;58450;52.150;4.466;2023-07-29T05:36:58;45.24;36.37;61.76;;
66274;Laerm;58450;52.150;4.466;2023-07-29T05:39:25;42.53;35.79;62.81;;
66274;Laerm;58450;52.150;4.466;2023-07-29T05:41:54;44.71;35.48;65.93;;
66274;Laerm;58450;52.150;4.466;2023-07-29T05:44:22;45.96;36.01;62.11;;
66274;Laerm;58450;52.150;4.466;2023-07-29T05:46:49;48.20;36.36;66.44;;
66274;Laerm;58450;52.150;4.466;2023-07-29T05:49:17;45.82;36.79;60.68;;
66274;Laerm;58450;52.150;4.466;2023-07-29T05:51:44;41.61;35.17;58.23;;
66274;Laerm;58450;52.150;4.466;2023-07-29T05:54:12;40.71;34.84;51.02;;
66274;Laerm;58450;52.150;4.466;2023-07-29T05:56:40;45.14;36.76;56.25;;
66274;Laerm;58450;52.150;4.466;2023-07-29T05:59:09;43.06;37.08;57.66;;
66274;Laerm;58450;52.150;4.466;2023-07-29T06:01:36;42.08;36.12;61.65;;
66274;Laerm;58450;52.150;4.466;2023-07-29T06:04:04;45.15;36.25;60.74;;
66274;Laerm;58450;52.150;4.466;2023-07-29T06:06:31;47.68;36.14;70.82;;
66274;Laerm;58450;52.150;4.466;2023-07-29T06:08:59;44.99;36.29;60.35;;
66274;Laerm;58450;52.150;4.466;2023-07-29T06:11:27;43.89;35.83;52.49;;
66274;Laerm;58450;52.150;4.466;2023-07-29T06:13:54;44.87;36.42;56.47;;
66274;Laerm;58450;52.150;4.466;2023-07-29T06:16:23;48.37;36.44;71.61;;
66274;Laerm;58450;52.150;4.466;2023-07-29T06:18:51;48.53;36.67;60.72;;
66274;Laerm;58450;52.150;4.466;2023-07-29T06:21:19;48.08;36.47;69.74;;
66274;Laerm;58450;52.150;4.466;2023-07-29T06:23:47;44.43;37.06;58.41;;
66274;Laerm;58450;52.150;4.466;2023-07-29T06:26:15;45.37;37.50;59.32;;
66274;Laerm;58450;52.150;4.466;2023-07-29T06:28:42;47.51;37.18;65.69;;
66274;Laerm;58450;52.150;4.466;2023-07-29T06:31:10;44.80;37.87;62.88;;
66274;Laerm;58450;52.150;4.466;2023-07-29T06:33:39;43.78;37.27;64.47;;
66274;Laerm;58450;52.150;4.466;2023-07-29T06:36:07;44.84;37.47;56.26;;
66274;Laerm;58450;52.150;4.466;2023-07-29T06:38:34;47.61;39.54;59.71;;
66274;Laerm;58450;52.150;4.466;2023-07-29T06:41:02;44.99;39.26;57.42;;
66274;Laerm;58450;52.150;4.466;2023-07-29T06:43:29;53.72;41.87;71.39;;
66274;Laerm;58450;52.150;4.466;2023-07-29T06:45:57;45.29;39.39;57.92;;
66274;Laerm;58450;52.150;4.466;2023-07-29T06:48:24;48.97;37.55;62.71;;
66274;Laerm;58450;52.150;4.466;2023-07-29T06:50:53;46.71;38.62;65.98;;
66274;Laerm;58450;52.150;4.466;2023-07-29T06:53:26;44.36;38.25;53.28;;
66274;Laerm;58450;52.150;4.466;2023-07-29T06:55:54;46.31;38.61;61.87;;
66274;Laerm;58450;52.150;4.466;2023-07-29T06:58:22;48.15;39.88;62.96;;
66274;Laerm;58450;52.150;4.466;2023-07-29T07:00:49;48.85;44.44;55.59;;
66274;Laerm;58450;52.150;4.466;2023-07-29T07:03:17;51.05;44.52;62.27;;
66274;Laerm;58450;52.150;4.466;2023-07-29T07:05:44;49.29;42.48;65.00;;
66274;Laerm;58450;52.150;4.466;2023-07-29T07:08:13;47.39;40.17;66.31;;
66274;Laerm;58450;52.150;4.466;2023-07-29T07:10:41;46.21;41.96;57.75;;
66274;Laerm;58450;52.150;4.466;2023-07-29T07:13:08;52.76;40.80;67.00;;
66274;Laerm;58450;52.150;4.466;2023-07-29T07:15:36;46.23;40.69;55.87;;
66274;Laerm;58450;52.150;4.466;2023-07-29T07:18:04;52.72;39.37;69.35;;
66274;Laerm;58450;52.150;4.466;2023-07-29T07:20:31;53.90;43.51;71.56;;
66274;Laerm;58450;52.150;4.466;2023-07-29T07:22:59;50.08;44.03;65.46;;
66274;Laerm;58450;52.150;4.466;2023-07-29T07:25:28;51.20;40.53;67.77;;
66274;Laerm;58450;52.150;4.466;2023-07-29T07:27:55;50.24;43.83;56.81;;
66274;Laerm;58450;52.150;4.466;2023-07-29T07:30:23;47.03;41.07;63.15;;
66274;Laerm;58450;52.150;4.466;2023-07-29T07:32:51;49.78;41.67;71.65;;
66274;Laerm;58450;52.150;4.466;2023-07-29T07:35:18;53.13;45.02;67.60;;
66274;Laerm;58450;52.150;4.466;2023-07-29T07:37:46;52.58;47.13;67.54;;
66274;Laerm;58450;52.150;4.466;2023-07-29T07:40:13;53.74;44.94;77.97;;
66274;Laerm;58450;52.150;4.466;2023-07-29T07:42:42;52.44;42.39;67.72;;
66274;Laerm;58450;52.150;4.466;2023-07-29T07:45:10;53.47;42.97;75.93;;
66274;Laerm;58450;52.150;4.466;2023-07-29T07:47:38;52.65;44.56;66.47;;
66274;Laerm;58450;52.150;4.466;2023-07-29T07:50:06;48.50;44.25;61.64;;
66274;Laerm;58450;52.150;4.466;2023-07-29T07:52:33;46.91;41.42;62.32;;
66274;Laerm;58450;52.150;4.466;2023-07-29T07:55:01;50.18;42.56;70.24;;
66274;Laerm;58450;52.150;4.466;2023-07-29T07:57:29;51.67;44.78;72.91;;
66274;Laerm;58450;52.150;4.466;2023-07-29T07:59:58;49.59;42.98;68.14;;
66274;Laerm;58450;52.150;4.466;2023-07-29T08:02:25;47.59;42.42;54.81;;
66274;Laerm;58450;52.150;4.466;2023-07-29T08:04:53;50.32;43.83;63.97;;
66274;Laerm;58450;52.150;4.466;2023-07-29T08:07:20;49.56;43.85;68.02;;
66274;Laerm;58450;52.150;4.466;2023-07-29T08:09:48;47.61;42.42;64.23;;
66274;Laerm;58450;52.150;4.466;2023-07-29T08:12:16;52.51;42.90;67.77;;
66274;Laerm;58450;52.150;4.466;2023-07-29T08:14:44;53.61;45.23;64.65;;
66274;Laerm;58450;52.150;4.466;2023-07-29T08:17:13;50.80;44.36;64.16;;
66274;Laerm;58450;52.150;4.466;2023-07-29T08:19:40;54.01;45.80;66.22;;
66274;Laerm;58450;52.150;4.466;2023-07-29T08:22:08;50.51;45.57;64.65;;
66274;Laerm;58450;52.150;4.466;2023-07-29T08:24:35;53.53;46.73;73.37;;
66274;Laerm;58450;52.150;4.466;2023-07-29T08:27:04;54.01;45.33;67.32;;
66274;Laerm;58450;52.150;4.466;2023-07-29T08:29:31;52.37;42.71;67.18;;
66274;Laerm;58450;52.150;4.466;2023-07-29T08:31:59;54.70;47.00;76.57;;
66274;Laerm;58450;52.150;4.466;2023-07-29T08:34:28;53.42;44.96;67.68;;
66274;Laerm;58450;52.150;4.466;2023-07-29T08:36:56;52.38;45.52;67.84;;
66274;Laerm;58450;52.150;4.466;2023-07-29T08:39:23;55.59;44.34;73.59;;
66274;Laerm;58450;52.150;4.466;2023-07-29T08:41:57;54.21;44.62;72.22;;
66274;Laerm;58450;52.150;4.466;2023-07-29T08:44:35;56.67;47.83;74.01;;
66274;Laerm;58450;52.150;4.466;2023-07-29T08:47:03;52.41;44.85;65.53;;
66274;Laerm;58450;52.150;4.466;2023-07-29T08:49:33;53.71;45.86;67.08;;
66274;Laerm;58450;52.150;4.466;2023-07-29T08:52:01;56.45;45.86;74.54;;
66274;Laerm;58450;52.150;4.466;2023-07-29T08:54:29;57.23;47.97;73.09;;
66274;Laerm;58450;52.150;4.466;2023-07-29T08:56:57;55.63;47.06;72.49;;
66274;Laerm;58450;52.150;4.466;2023-07-29T08:59:27;51.11;45.34;65.75;;
66274;Laerm;58450;52.150;4.466;2023-07-29T09:01:57;52.50;45.38;68.24;;
66274;Laerm;58450;52.150;4.466;2023-07-29T09:04:25;52.27;46.19;65.15;;
66274;Laerm;58450;52.150;4.466;2023-07-29T09:06:57;53.47;43.57;70.73;;
66274;Laerm;58450;52.150;4.466;2023-07-29T09:09:26;53.58;45.72;66.50;;
66274;Laerm;58450;52.150;4.466;2023-07-29T09:11:53;54.44;45.55;74.01;;
66274;Laerm;58450;52.150;4.466;2023-07-29T09:14:21;53.79;47.44;71.29;;
66274;Laerm;58450;52.150;4.466;2023-07-29T09:16:51;54.18;45.19;66.25;;
66274;Laerm;58450;52.150;4.466;2023-07-29T09:19:19;55.26;44.53;66.80;;
66274;Laerm;58450;52.150;4.466;2023-07-29T09:21:47;53.29;47.21;64.40;;
66274;Laerm;58450;52.150;4.466;2023-07-29T09:24:17;51.05;44.66;68.64;;
66274;Laerm;58450;52.150;4.466;2023-07-29T09:26:49;53.70;43.97;70.84;;
66274;Laerm;58450;52.150;4.466;2023-07-29T09:29:22;51.23;45.54;66.94;;
66274;Laerm;58450;52.150;4.466;2023-07-29T09:31:50;53.65;47.19;67.74;;
66274;Laerm;58450;52.150;4.466;2023-07-29T09:34:17;52.58;47.69;61.34;;
66274;Laerm;58450;52.150;4.466;2023-07-29T09:36:45;50.89;43.84;66.97;;
66274;Laerm;58450;52.150;4.466;2023-07-29T09:39:13;52.00;44.90;70.82;;
66274;Laerm;58450;52.150;4.466;2023-07-29T09:41:47;52.00;43.96;59.50;;
66274;Laerm;58450;52.150;4.466;2023-07-29T09:44:15;55.07;46.32;71.26;;
66274;Laerm;58450;52.150;4.466;2023-07-29T09:46:46;54.48;43.27;86.50;;
66274;Laerm;58450;52.150;4.466;2023-07-29T09:49:13;53.91;44.59;68.81;;
66274;Laerm;58450;52.150;4.466;2023-07-29T09:51:41;51.49;44.43;69.27;;
66274;Laerm;58450;52.150;4.466;2023-07-29T09:54:10;52.04;44.42;67.80;;
66274;Laerm;58450;52.150;4.466;2023-07-29T09:56:42;50.91;44.77;65.24;;
66274;Laerm;58450;52.150;4.466;2023-07-29T09:59:11;56.50;44.28;71.54;;
66274;Laerm;58450;52.150;4.466;2023-07-29T10:01:40;54.58;42.35;72.40;;
66274;Laerm;58450;52.150;4.466;2023-07-29T10:04:09;48.99;41.57;72.73;;
66274;Laerm;58450;52.150;4.466;2023-07-29T10:06:38;49.90;42.80;71.50;;
66274;Laerm;58450;52.150;4.466;2023-07-29T10:09:07;50.39;43.73;71.66;;
66274;Laerm;58450;52.150;4.466;2023-07-29T10:11:36;48.36;42.07;69.15;;
66274;Laerm;58450;52.150;4.466;2023-07-29T10:14:07;50.77;41.48;68.25;;
66274;Laerm;58450;52.150;4.466;2023-07-29T10:16:36;47.72;41.64;70.18;;
66274;Laerm;58450;52.150;4.466;2023-07-29T10:19:04;48.96;41.52;65.71;;
66274;Laerm;58450;52.150;4.466;2023-07-29T10:21:38;52.81;44.09;63.81;;
66274;Laerm;58450;52.150;4.466;2023-07-29T10:24:15;51.00;44.12;67.71;;
66274;Laerm;58450;52.150;4.466;2023-07-29T10:26:49;50.05;41.86;68.88;;
66274;Laerm;58450;52.150;4.466;2023-07-29T10:29:20;51.35;41.16;70.84;;
66274;Laerm;58450;52.150;4.466;2023-07-29T10:31:52;48.96;41.05;68.54;;
66274;Laerm;58450;52.150;4.466;2023-07-29T10:34:21;47.25;40.40;64.82;;
66274;Laerm;58450;52.150;4.466;2023-07-29T10:36:50;48.69;39.91;67.44;;
66274;Laerm;58450;52.150;4.466;2023-07-29T10:39:18;47.32;40.82;66.24;;
66274;Laerm;58450;52.150;4.466;2023-07-29T10:41:55;49.23;40.89;66.86;;
66274;Laerm;58450;52.150;4.466;2023-07-29T10:44:53;49.84;42.68;66.36;;
66274;Laerm;58450;52.150;4.466;2023-07-29T10:47:23;49.17;40.68;67.31;;
66274;Laerm;58450;52.150;4.466;2023-07-29T10:49:53;48.12;41.90;65.02;;
66274;Laerm;58450;52.150;4.466;2023-07-29T10:52:40;47.97;40.26;66.72;;
66274;Laerm;58450;52.150;4.466;2023-07-29T10:55:28;51.49;42.31;66.09;;
66274;Laerm;58450;52.150;4.466;2023-07-29T10:58:12;47.36;42.23;64.74;;
66274;Laerm;58450;52.150;4.466;2023-07-29T11:00:44;47.82;41.88;65.84;;
66274;Laerm;58450;52.150;4.466;2023-07-29T11:03:13;48.51;41.20;71.34;;
66274;Laerm;58450;52.150;4.466;2023-07-29T11:05:46;49.02;40.97;67.13;;
66274;Laerm;58450;52.150;4.466;2023-07-29T11:08:24;49.01;41.48;64.92;;
66274;Laerm;58450;52.150;4.466;2023-07-29T11:11:05;52.30;40.06;83.81;;
66274;Laerm;58450;52.150;4.466;2023-07-29T11:13:35;49.89;40.55;63.89;;
66274;Laerm;58450;52.150;4.466;2023-07-29T11:16:05;58.24;43.76;69.69;;
66274;Laerm;58450;52.150;4.466;2023-07-29T11:18:35;67.00;58.95;74.18;;
66274;Laerm;58450;52.150;4.466;2023-07-29T11:21:04;67.23;62.30;73.21;;
66274;Laerm;58450;52.150;4.466;2023-07-29T11:23:34;61.04;51.43;71.82;;
66274;Laerm;58450;52.150;4.466;2023-07-29T11:26:03;53.19;47.99;62.21;;
66274;Laerm;58450;52.150;4.466;2023-07-29T11:28:30;54.76;47.21;63.69;;
66274;Laerm;58450;52.150;4.466;2023-07-29T11:30:58;53.15;47.00;60.05;;
66274;Laerm;58450;52.150;4.466;2023-07-29T11:33:27;50.43;45.86;56.75;;
66274;Laerm;58450;52.150;4.466;2023-07-29T11:35:55;51.12;45.21;67.17;;
66274;Laerm;58450;52.150;4.466;2023-07-29T11:38:23;54.86;48.66;66.34;;
66274;Laerm;58450;52.150;4.466;2023-07-29T11:40:56;55.02;49.22;63.77;;
66274;Laerm;58450;52.150;4.466;2023-07-29T11:43:23;52.21;45.04;66.05;;
66274;Laerm;58450;52.150;4.466;2023-07-29T11:45:51;52.87;44.40;67.00;;
66274;Laerm;58450;52.150;4.466;2023-07-29T11:48:28;52.30;42.58;63.54;;
66274;Laerm;58450;52.150;4.466;2023-07-29T11:50:56;50.60;44.54;72.86;;
66274;Laerm;58450;52.150;4.466;2023-07-29T11:53:28;53.40;44.74;73.31;;
66274;Laerm;58450;52.150;4.466;2023-07-29T11:55:56;56.80;44.16;79.04;;
66274;Laerm;58450;52.150;4.466;2023-07-29T11:58:24;51.30;44.14;63.23;;
66274;Laerm;58450;52.150;4.466;2023-07-29T12:00:51;47.93;42.45;59.34;;
66274;Laerm;58450;52.150;4.466;2023-07-29T12:03:19;49.64;43.09;65.84;;
66274;Laerm;58450;52.150;4.466;2023-07-29T12:05:49;53.90;45.41;70.99;;
66274;Laerm;58450;52.150;4.466;2023-07-29T12:08:16;52.25;42.84;70.33;;
66274;Laerm;58450;52.150;4.466;2023-07-29T12:10:44;50.33;43.18;62.17;;
66274;Laerm;58450;52.150;4.466;2023-07-29T12:13:12;53.93;45.86;65.86;;
66274;Laerm;58450;52.150;4.466;2023-07-29T12:15:40;56.33;46.22;69.36;;
66274;Laerm;58450;52.150;4.466;2023-07-29T12:18:08;53.14;43.74;67.95;;
66274;Laerm;58450;52.150;4.466;2023-07-29T12:20:36;54.94;47.95;70.65;;
66274;Laerm;58450;52.150;4.466;2023-07-29T12:23:05;52.47;46.30;63.75;;
66274;Laerm;58450;52.150;4.466;2023-07-29T12:25:35;51.04;44.27;66.38;;
66274;Laerm;58450;52.150;4.466;2023-07-29T12:28:04;52.70;44.34;70.96;;
66274;Laerm;58450;52.150;4.466;2023-07-29T12:30:32;49.71;44.34;67.81;;
66274;Laerm;58450;52.150;4.466;2023-07-29T12:33:00;49.57;43.21;63.33;;
66274;Laerm;58450;52.150;4.466;2023-07-29T12:35:36;53.13;44.71;65.63;;
66274;Laerm;58450;52.150;4.466;2023-07-29T12:38:05;50.88;44.34;64.85;;
66274;Laerm;58450;52.150;4.466;2023-07-29T12:40:37;53.89;47.01;67.91;;
66274;Laerm;58450;52.150;4.466;2023-07-29T12:43:05;56.37;47.19;67.60;;
66274;Laerm;58450;52.150;4.466;2023-07-29T12:45:36;51.53;44.46;81.48;;
66274;Laerm;58450;52.150;4.466;2023-07-29T12:48:06;51.30;43.88;65.30;;
66274;Laerm;58450;52.150;4.466;2023-07-29T12:50:33;53.25;45.63;72.18;;
66274;Laerm;58450;52.150;4.466;2023-07-29T12:53:01;53.53;47.58;63.90;;
66274;Laerm;58450;52.150;4.466;2023-07-29T12:55:30;54.31;47.92;63.83;;
66274;Laerm;58450;52.150;4.466;2023-07-29T12:57:58;54.53;48.97;64.43;;
66274;Laerm;58450;52.150;4.466;2023-07-29T13:00:25;51.92;46.03;68.15;;
66274;Laerm;58450;52.150;4.466;2023-07-29T13:02:53;53.35;46.66;65.39;;
66274;Laerm;58450;52.150;4.466;2023-07-29T13:05:21;53.19;45.96;67.41;;
66274;Laerm;58450;52.150;4.466;2023-07-29T13:07:49;51.15;45.48;73.48;;
66274;Laerm;58450;52.150;4.466;2023-07-29T13:10:17;53.07;43.86;76.06;;
66274;Laerm;58450;52.150;4.466;2023-07-29T13:12:46;53.19;43.81;71.34;;
66274;Laerm;58450;52.150;4.466;2023-07-29T13:15:14;54.73;43.62;79.18;;
66274;Laerm;58450;52.150;4.466;2023-07-29T13:17:42;53.40;42.40;67.51;;
66274;Laerm;58450;52.150;4.466;2023-07-29T13:20:09;49.18;42.58;66.11;;
66274;Laerm;58450;52.150;4.466;2023-07-29T13:22:37;49.00;43.21;61.82;;
66274;Laerm;58450;52.150;4.466;2023-07-29T13:25:05;50.95;44.54;59.99;;
66274;Laerm;58450;52.150;4.466;2023-07-29T13:27:33;49.43;41.98;65.36;;
66274;Laerm;58450;52.150;4.466;2023-07-29T13:30:02;48.52;42.80;64.34;;
66274;Laerm;58450;52.150;4.466;2023-07-29T13:32:29;50.75;42.14;69.25;;
66274;Laerm;58450;52.150;4.466;2023-07-29T13:34:57;54.69;46.77;71.63;;
66274;Laerm;58450;52.150;4.466;2023-07-29T13:37:24;53.62;45.64;69.89;;
66274;Laerm;58450;52.150;4.466;2023-07-29T13:39:52;53.60;43.68;71.06;;
66274;Laerm;58450;52.150;4.466;2023-07-29T13:42:19;56.63;46.47;66.42;;
66274;Laerm;58450;52.150;4.466;2023-07-29T13:44:47;52.31;43.87;66.31;;
66274;Laerm;58450;52.150;4.466;2023-07-29T13:47:16;49.63;41.59;63.94;;
66274;Laerm;58450;52.150;4.466;2023-07-29T13:49:43;49.77;43.70;61.59;;
66274;Laerm;58450;52.150;4.466;2023-07-29T13:52:13;48.94;41.74;59.53;;
66274;Laerm;58450;52.150;4.466;2023-07-29T13:54:41;50.36;43.93;56.79;;